ΕΜΥ, Εθνική Μετεωρολογική Υπηρεσία - Δελτία Καιρού, Προγνώσεις

ΑΕΡΟΝΑΥΤΙΛΙΑ

GREEK AIRPORTS CODES

TAF LGST 241700Z 2418/2503 17020G30KT 9999 FEW020 SCT080 BECMG 2418/2420 17015KT=

EUROPEAN AIRPORTS CODES

LFPO 241800Z 18003KT 150V220 9999 FEW020 14/07 Q1000 NOSIG=